sensor_id;sensor_type;location;lat;lon;timestamp;P1;durP1;ratioP1;P2;durP2;ratioP2
31482;SDS011;18103;52.246;8.052;2023-06-14T00:02:18;3.30;;;1.80;;
31482;SDS011;18103;52.246;8.052;2023-06-14T00:04:43;6.67;;;2.00;;
31482;SDS011;18103;52.246;8.052;2023-06-14T00:07:09;3.90;;;2.20;;
31482;SDS011;18103;52.246;8.052;2023-06-14T00:09:34;3.57;;;2.10;;
31482;SDS011;18103;52.246;8.052;2023-06-14T00:12:00;23.27;;;2.47;;
31482;SDS011;18103;52.246;8.052;2023-06-14T00:14:28;3.63;;;1.60;;
31482;SDS011;18103;52.246;8.052;2023-06-14T00:16:55;5.73;;;2.13;;
31482;SDS011;18103;52.246;8.052;2023-06-14T00:19:26;5.43;;;2.00;;
31482;SDS011;18103;52.246;8.052;2023-06-14T00:21:51;9.33;;;2.50;;
31482;SDS011;18103;52.246;8.052;2023-06-14T00:24:20;5.20;;;1.83;;
31482;SDS011;18103;52.246;8.052;2023-06-14T00:26:46;2.93;;;1.70;;
31482;SDS011;18103;52.246;8.052;2023-06-14T00:29:12;3.40;;;1.80;;
31482;SDS011;18103;52.246;8.052;2023-06-14T00:31:39;2.50;;;1.70;;
31482;SDS011;18103;52.246;8.052;2023-06-14T00:34:05;5.40;;;1.90;;
31482;SDS011;18103;52.246;8.052;2023-06-14T00:36:36;3.63;;;2.20;;
31482;SDS011;18103;52.246;8.052;2023-06-14T00:39:02;4.17;;;2.07;;
31482;SDS011;18103;52.246;8.052;2023-06-14T00:41:28;3.97;;;2.07;;
31482;SDS011;18103;52.246;8.052;2023-06-14T00:43:54;3.13;;;2.03;;
31482;SDS011;18103;52.246;8.052;2023-06-14T00:46:22;2.70;;;1.43;;
31482;SDS011;18103;52.246;8.052;2023-06-14T00:48:50;5.63;;;1.90;;
31482;SDS011;18103;52.246;8.052;2023-06-14T00:51:20;3.27;;;1.47;;
31482;SDS011;18103;52.246;8.052;2023-06-14T00:53:46;3.40;;;2.10;;
31482;SDS011;18103;52.246;8.052;2023-06-14T00:56:12;3.93;;;1.77;;
31482;SDS011;18103;52.246;8.052;2023-06-14T00:58:41;6.80;;;2.07;;
31482;SDS011;18103;52.246;8.052;2023-06-14T01:01:09;3.83;;;1.63;;
31482;SDS011;18103;52.246;8.052;2023-06-14T01:03:37;4.33;;;1.93;;
31482;SDS011;18103;52.246;8.052;2023-06-14T01:06:12;3.10;;;1.90;;
31482;SDS011;18103;52.246;8.052;2023-06-14T01:11:29;6.20;;;2.23;;
31482;SDS011;18103;52.246;8.052;2023-06-14T01:14:00;7.00;;;2.23;;
31482;SDS011;18103;52.246;8.052;2023-06-14T01:16:28;7.60;;;1.77;;
31482;SDS011;18103;52.246;8.052;2023-06-14T01:18:54;4.40;;;1.80;;
31482;SDS011;18103;52.246;8.052;2023-06-14T01:21:24;4.43;;;2.23;;
31482;SDS011;18103;52.246;8.052;2023-06-14T01:23:51;2.60;;;1.50;;
31482;SDS011;18103;52.246;8.052;2023-06-14T01:26:20;5.30;;;1.93;;
31482;SDS011;18103;52.246;8.052;2023-06-14T01:28:47;4.83;;;2.40;;
31482;SDS011;18103;52.246;8.052;2023-06-14T01:31:16;5.00;;;1.70;;
31482;SDS011;18103;52.246;8.052;2023-06-14T01:33:51;3.80;;;1.97;;
31482;SDS011;18103;52.246;8.052;2023-06-14T01:36:18;5.37;;;1.67;;
31482;SDS011;18103;52.246;8.052;2023-06-14T01:38:47;3.33;;;1.93;;
31482;SDS011;18103;52.246;8.052;2023-06-14T01:41:17;4.00;;;1.70;;
31482;SDS011;18103;52.246;8.052;2023-06-14T01:43:45;2.30;;;1.63;;
31482;SDS011;18103;52.246;8.052;2023-06-14T01:46:18;2.13;;;1.83;;
31482;SDS011;18103;52.246;8.052;2023-06-14T01:48:47;5.03;;;1.80;;
31482;SDS011;18103;52.246;8.052;2023-06-14T01:51:13;7.13;;;1.97;;
31482;SDS011;18103;52.246;8.052;2023-06-14T01:53:38;8.27;;;1.90;;
31482;SDS011;18103;52.246;8.052;2023-06-14T01:56:06;4.93;;;1.93;;
31482;SDS011;18103;52.246;8.052;2023-06-14T01:58:32;3.53;;;1.83;;
31482;SDS011;18103;52.246;8.052;2023-06-14T02:01:00;8.60;;;2.43;;
31482;SDS011;18103;52.246;8.052;2023-06-14T02:03:26;4.40;;;1.77;;
31482;SDS011;18103;52.246;8.052;2023-06-14T02:05:53;3.70;;;2.27;;
31482;SDS011;18103;52.246;8.052;2023-06-14T02:08:22;2.20;;;1.70;;
31482;SDS011;18103;52.246;8.052;2023-06-14T02:10:50;4.03;;;2.90;;
31482;SDS011;18103;52.246;8.052;2023-06-14T02:13:16;3.03;;;1.90;;
31482;SDS011;18103;52.246;8.052;2023-06-14T02:15:41;5.83;;;1.80;;
31482;SDS011;18103;52.246;8.052;2023-06-14T02:18:10;3.80;;;1.80;;
31482;SDS011;18103;52.246;8.052;2023-06-14T02:20:37;3.50;;;2.27;;
31482;SDS011;18103;52.246;8.052;2023-06-14T02:23:03;4.90;;;1.93;;
31482;SDS011;18103;52.246;8.052;2023-06-14T02:25:28;3.77;;;2.00;;
31482;SDS011;18103;52.246;8.052;2023-06-14T02:27:56;5.67;;;2.10;;
31482;SDS011;18103;52.246;8.052;2023-06-14T02:30:22;3.87;;;2.00;;
31482;SDS011;18103;52.246;8.052;2023-06-14T02:32:49;5.67;;;2.00;;
31482;SDS011;18103;52.246;8.052;2023-06-14T02:35:16;2.60;;;1.80;;
31482;SDS011;18103;52.246;8.052;2023-06-14T02:37:41;3.83;;;1.70;;
31482;SDS011;18103;52.246;8.052;2023-06-14T02:40:07;5.80;;;2.20;;
31482;SDS011;18103;52.246;8.052;2023-06-14T02:42:36;8.10;;;2.03;;
31482;SDS011;18103;52.246;8.052;2023-06-14T02:45:02;4.83;;;1.73;;
31482;SDS011;18103;52.246;8.052;2023-06-14T02:47:35;5.70;;;1.77;;
31482;SDS011;18103;52.246;8.052;2023-06-14T02:50:01;8.70;;;1.97;;
31482;SDS011;18103;52.246;8.052;2023-06-14T02:52:27;2.37;;;1.93;;
31482;SDS011;18103;52.246;8.052;2023-06-14T02:54:53;6.23;;;1.80;;
31482;SDS011;18103;52.246;8.052;2023-06-14T02:57:19;7.37;;;2.60;;
31482;SDS011;18103;52.246;8.052;2023-06-14T02:59:44;4.80;;;2.13;;
31482;SDS011;18103;52.246;8.052;2023-06-14T03:02:12;3.87;;;1.73;;
31482;SDS011;18103;52.246;8.052;2023-06-14T03:04:40;5.30;;;2.10;;
31482;SDS011;18103;52.246;8.052;2023-06-14T03:07:08;3.77;;;1.93;;
31482;SDS011;18103;52.246;8.052;2023-06-14T03:09:37;3.70;;;2.00;;
31482;SDS011;18103;52.246;8.052;2023-06-14T03:12:04;6.83;;;1.90;;
31482;SDS011;18103;52.246;8.052;2023-06-14T03:14:31;1.57;;;1.47;;
31482;SDS011;18103;52.246;8.052;2023-06-14T03:17:02;2.87;;;1.83;;
31482;SDS011;18103;52.246;8.052;2023-06-14T03:19:30;4.30;;;2.10;;
31482;SDS011;18103;52.246;8.052;2023-06-14T03:21:55;3.07;;;1.73;;
31482;SDS011;18103;52.246;8.052;2023-06-14T03:24:24;3.93;;;1.87;;
31482;SDS011;18103;52.246;8.052;2023-06-14T03:26:52;3.43;;;2.13;;
31482;SDS011;18103;52.246;8.052;2023-06-14T03:29:21;2.67;;;1.80;;
31482;SDS011;18103;52.246;8.052;2023-06-14T03:31:57;4.37;;;2.00;;
31482;SDS011;18103;52.246;8.052;2023-06-14T03:34:27;4.80;;;2.00;;
31482;SDS011;18103;52.246;8.052;2023-06-14T03:36:55;2.60;;;1.87;;
31482;SDS011;18103;52.246;8.052;2023-06-14T03:39:23;4.73;;;1.80;;
31482;SDS011;18103;52.246;8.052;2023-06-14T03:41:53;4.10;;;1.70;;
31482;SDS011;18103;52.246;8.052;2023-06-14T03:44:18;2.63;;;1.80;;
31482;SDS011;18103;52.246;8.052;2023-06-14T03:46:44;5.47;;;1.87;;
31482;SDS011;18103;52.246;8.052;2023-06-14T03:49:11;3.70;;;2.13;;
31482;SDS011;18103;52.246;8.052;2023-06-14T03:51:41;3.77;;;1.70;;
31482;SDS011;18103;52.246;8.052;2023-06-14T03:54:06;5.07;;;1.90;;
31482;SDS011;18103;52.246;8.052;2023-06-14T03:56:34;3.57;;;1.97;;
31482;SDS011;18103;52.246;8.052;2023-06-14T03:59:02;5.03;;;2.03;;
31482;SDS011;18103;52.246;8.052;2023-06-14T04:01:28;2.83;;;2.00;;
31482;SDS011;18103;52.246;8.052;2023-06-14T04:03:54;3.53;;;1.97;;
31482;SDS011;18103;52.246;8.052;2023-06-14T04:06:20;3.20;;;2.10;;
31482;SDS011;18103;52.246;8.052;2023-06-14T04:08:46;3.73;;;2.10;;
31482;SDS011;18103;52.246;8.052;2023-06-14T04:11:11;8.33;;;2.10;;
31482;SDS011;18103;52.246;8.052;2023-06-14T04:13:36;6.00;;;2.37;;
31482;SDS011;18103;52.246;8.052;2023-06-14T04:16:07;3.80;;;2.13;;
31482;SDS011;18103;52.246;8.052;2023-06-14T04:18:32;7.83;;;2.30;;
31482;SDS011;18103;52.246;8.052;2023-06-14T04:20:57;3.67;;;2.10;;
31482;SDS011;18103;52.246;8.052;2023-06-14T04:23:23;2.33;;;2.00;;
31482;SDS011;18103;52.246;8.052;2023-06-14T04:25:48;3.57;;;2.20;;
31482;SDS011;18103;52.246;8.052;2023-06-14T04:28:14;5.10;;;2.30;;
31482;SDS011;18103;52.246;8.052;2023-06-14T04:30:40;4.37;;;2.10;;
31482;SDS011;18103;52.246;8.052;2023-06-14T04:33:09;2.37;;;1.80;;
31482;SDS011;18103;52.246;8.052;2023-06-14T04:35:37;5.37;;;2.37;;
31482;SDS011;18103;52.246;8.052;2023-06-14T04:38:03;3.73;;;2.27;;
31482;SDS011;18103;52.246;8.052;2023-06-14T04:40:34;3.67;;;2.17;;
31482;SDS011;18103;52.246;8.052;2023-06-14T04:43:01;4.97;;;1.77;;
31482;SDS011;18103;52.246;8.052;2023-06-14T04:45:30;3.47;;;2.10;;
31482;SDS011;18103;52.246;8.052;2023-06-14T04:47:58;3.80;;;2.20;;
31482;SDS011;18103;52.246;8.052;2023-06-14T04:50:24;8.00;;;2.00;;
31482;SDS011;18103;52.246;8.052;2023-06-14T04:52:49;3.73;;;1.90;;
31482;SDS011;18103;52.246;8.052;2023-06-14T04:55:16;5.37;;;2.10;;
31482;SDS011;18103;52.246;8.052;2023-06-14T04:57:44;4.20;;;2.37;;
31482;SDS011;18103;52.246;8.052;2023-06-14T05:00:10;5.83;;;2.37;;
31482;SDS011;18103;52.246;8.052;2023-06-14T05:02:37;9.30;;;2.50;;
31482;SDS011;18103;52.246;8.052;2023-06-14T05:05:05;7.50;;;2.40;;
31482;SDS011;18103;52.246;8.052;2023-06-14T05:07:31;3.23;;;1.87;;
31482;SDS011;18103;52.246;8.052;2023-06-14T05:09:58;5.67;;;2.27;;
31482;SDS011;18103;52.246;8.052;2023-06-14T05:12:24;6.80;;;2.47;;
31482;SDS011;18103;52.246;8.052;2023-06-14T05:14:49;3.63;;;2.10;;
31482;SDS011;18103;52.246;8.052;2023-06-14T05:17:17;3.67;;;1.97;;
31482;SDS011;18103;52.246;8.052;2023-06-14T05:19:43;3.57;;;2.03;;
31482;SDS011;18103;52.246;8.052;2023-06-14T05:22:08;6.37;;;1.93;;
31482;SDS011;18103;52.246;8.052;2023-06-14T05:24:33;4.83;;;2.60;;
31482;SDS011;18103;52.246;8.052;2023-06-14T05:26:59;5.10;;;2.10;;
31482;SDS011;18103;52.246;8.052;2023-06-14T05:29:25;2.73;;;2.07;;
31482;SDS011;18103;52.246;8.052;2023-06-14T05:31:51;13.30;;;3.53;;
31482;SDS011;18103;52.246;8.052;2023-06-14T05:34:21;7.27;;;2.33;;
31482;SDS011;18103;52.246;8.052;2023-06-14T05:36:46;9.70;;;2.67;;
31482;SDS011;18103;52.246;8.052;2023-06-14T05:39:14;4.97;;;2.37;;
31482;SDS011;18103;52.246;8.052;2023-06-14T05:41:42;7.93;;;2.20;;
31482;SDS011;18103;52.246;8.052;2023-06-14T05:44:10;2.97;;;1.93;;
31482;SDS011;18103;52.246;8.052;2023-06-14T05:46:35;6.17;;;2.33;;
31482;SDS011;18103;52.246;8.052;2023-06-14T05:49:00;3.93;;;2.03;;
31482;SDS011;18103;52.246;8.052;2023-06-14T05:51:26;4.20;;;2.30;;
31482;SDS011;18103;52.246;8.052;2023-06-14T05:53:56;6.90;;;2.20;;
31482;SDS011;18103;52.246;8.052;2023-06-14T05:56:21;6.27;;;2.30;;
31482;SDS011;18103;52.246;8.052;2023-06-14T05:58:50;8.03;;;2.10;;
31482;SDS011;18103;52.246;8.052;2023-06-14T06:01:18;3.10;;;1.87;;
31482;SDS011;18103;52.246;8.052;2023-06-14T06:03:43;3.83;;;1.83;;
31482;SDS011;18103;52.246;8.052;2023-06-14T06:06:10;4.43;;;2.27;;
31482;SDS011;18103;52.246;8.052;2023-06-14T06:08:36;3.17;;;1.73;;
31482;SDS011;18103;52.246;8.052;2023-06-14T06:11:02;2.87;;;2.00;;
31482;SDS011;18103;52.246;8.052;2023-06-14T06:13:27;3.20;;;2.30;;
31482;SDS011;18103;52.246;8.052;2023-06-14T06:15:53;5.53;;;2.17;;
31482;SDS011;18103;52.246;8.052;2023-06-14T06:18:21;2.90;;;2.00;;
31482;SDS011;18103;52.246;8.052;2023-06-14T06:20:47;4.73;;;2.00;;
31482;SDS011;18103;52.246;8.052;2023-06-14T06:23:12;6.47;;;1.97;;
31482;SDS011;18103;52.246;8.052;2023-06-14T06:25:38;3.37;;;1.73;;
31482;SDS011;18103;52.246;8.052;2023-06-14T06:28:03;2.70;;;1.83;;
31482;SDS011;18103;52.246;8.052;2023-06-14T06:30:28;6.37;;;1.90;;
31482;SDS011;18103;52.246;8.052;2023-06-14T06:32:54;1.83;;;1.60;;
31482;SDS011;18103;52.246;8.052;2023-06-14T06:35:20;5.83;;;1.90;;
31482;SDS011;18103;52.246;8.052;2023-06-14T06:37:46;4.10;;;1.60;;
31482;SDS011;18103;52.246;8.052;2023-06-14T06:40:14;4.07;;;1.30;;
31482;SDS011;18103;52.246;8.052;2023-06-14T06:42:39;5.30;;;1.63;;
31482;SDS011;18103;52.246;8.052;2023-06-14T06:45:09;8.43;;;1.63;;
31482;SDS011;18103;52.246;8.052;2023-06-14T06:47:37;15.20;;;1.80;;
31482;SDS011;18103;52.246;8.052;2023-06-14T06:50:05;5.07;;;1.17;;
31482;SDS011;18103;52.246;8.052;2023-06-14T06:52:32;2.50;;;1.60;;
31482;SDS011;18103;52.246;8.052;2023-06-14T06:55:00;5.70;;;1.77;;
31482;SDS011;18103;52.246;8.052;2023-06-14T06:57:25;3.23;;;1.50;;
31482;SDS011;18103;52.246;8.052;2023-06-14T06:59:50;3.33;;;1.43;;
31482;SDS011;18103;52.246;8.052;2023-06-14T07:02:18;3.23;;;1.60;;
31482;SDS011;18103;52.246;8.052;2023-06-14T07:04:44;2.63;;;1.50;;
31482;SDS011;18103;52.246;8.052;2023-06-14T07:07:11;2.63;;;1.40;;
31482;SDS011;18103;52.246;8.052;2023-06-14T07:09:39;2.50;;;1.77;;
31482;SDS011;18103;52.246;8.052;2023-06-14T07:12:07;6.03;;;1.67;;
31482;SDS011;18103;52.246;8.052;2023-06-14T07:14:33;3.93;;;1.57;;
31482;SDS011;18103;52.246;8.052;2023-06-14T07:16:58;3.27;;;1.53;;
31482;SDS011;18103;52.246;8.052;2023-06-14T07:19:23;2.97;;;1.70;;
31482;SDS011;18103;52.246;8.052;2023-06-14T07:21:57;4.80;;;1.80;;
31482;SDS011;18103;52.246;8.052;2023-06-14T07:24:25;4.73;;;1.90;;
31482;SDS011;18103;52.246;8.052;2023-06-14T07:26:51;3.07;;;1.30;;
31482;SDS011;18103;52.246;8.052;2023-06-14T07:29:19;2.00;;;1.40;;
31482;SDS011;18103;52.246;8.052;2023-06-14T07:31:47;2.40;;;1.50;;
31482;SDS011;18103;52.246;8.052;2023-06-14T07:34:15;5.00;;;1.40;;
31482;SDS011;18103;52.246;8.052;2023-06-14T07:36:41;7.97;;;1.90;;
31482;SDS011;18103;52.246;8.052;2023-06-14T07:39:09;3.00;;;1.43;;
31482;SDS011;18103;52.246;8.052;2023-06-14T07:41:35;4.60;;;1.50;;
31482;SDS011;18103;52.246;8.052;2023-06-14T07:44:00;2.73;;;1.60;;
31482;SDS011;18103;52.246;8.052;2023-06-14T07:46:28;2.20;;;1.20;;
31482;SDS011;18103;52.246;8.052;2023-06-14T07:48:56;1.50;;;1.10;;
31482;SDS011;18103;52.246;8.052;2023-06-14T07:51:22;2.23;;;1.30;;
31482;SDS011;18103;52.246;8.052;2023-06-14T07:53:48;2.53;;;1.20;;
31482;SDS011;18103;52.246;8.052;2023-06-14T07:56:14;1.60;;;1.10;;
31482;SDS011;18103;52.246;8.052;2023-06-14T07:58:39;5.47;;;1.47;;
31482;SDS011;18103;52.246;8.052;2023-06-14T08:01:04;2.03;;;1.30;;
31482;SDS011;18103;52.246;8.052;2023-06-14T08:03:32;2.07;;;1.13;;
31482;SDS011;18103;52.246;8.052;2023-06-14T08:05:58;2.57;;;1.40;;
31482;SDS011;18103;52.246;8.052;2023-06-14T08:08:24;1.17;;;1.03;;
31482;SDS011;18103;52.246;8.052;2023-06-14T08:10:49;2.80;;;1.70;;
31482;SDS011;18103;52.246;8.052;2023-06-14T08:13:15;2.87;;;1.20;;
31482;SDS011;18103;52.246;8.052;2023-06-14T08:15:40;1.57;;;1.20;;
31482;SDS011;18103;52.246;8.052;2023-06-14T08:18:08;7.17;;;1.20;;
31482;SDS011;18103;52.246;8.052;2023-06-14T08:20:33;5.57;;;1.07;;
31482;SDS011;18103;52.246;8.052;2023-06-14T08:23:04;4.33;;;1.00;;
31482;SDS011;18103;52.246;8.052;2023-06-14T08:25:30;5.10;;;1.20;;
31482;SDS011;18103;52.246;8.052;2023-06-14T08:27:58;2.67;;;1.47;;
31482;SDS011;18103;52.246;8.052;2023-06-14T08:30:24;3.57;;;1.30;;
31482;SDS011;18103;52.246;8.052;2023-06-14T08:32:52;1.73;;;0.93;;
31482;SDS011;18103;52.246;8.052;2023-06-14T08:35:21;1.40;;;1.07;;
31482;SDS011;18103;52.246;8.052;2023-06-14T08:37:49;1.40;;;0.90;;
31482;SDS011;18103;52.246;8.052;2023-06-14T08:40:21;1.70;;;1.07;;
31482;SDS011;18103;52.246;8.052;2023-06-14T08:42:52;4.87;;;0.93;;
31482;SDS011;18103;52.246;8.052;2023-06-14T08:45:21;4.43;;;1.20;;
31482;SDS011;18103;52.246;8.052;2023-06-14T08:47:48;3.30;;;1.10;;
31482;SDS011;18103;52.246;8.052;2023-06-14T08:50:26;2.87;;;1.03;;
31482;SDS011;18103;52.246;8.052;2023-06-14T08:52:55;2.80;;;1.63;;
31482;SDS011;18103;52.246;8.052;2023-06-14T08:55:25;2.67;;;1.37;;
31482;SDS011;18103;52.246;8.052;2023-06-14T08:57:55;2.30;;;1.03;;
31482;SDS011;18103;52.246;8.052;2023-06-14T09:00:25;2.53;;;1.20;;
31482;SDS011;18103;52.246;8.052;2023-06-14T09:02:52;1.93;;;1.43;;
31482;SDS011;18103;52.246;8.052;2023-06-14T09:05:25;1.73;;;1.10;;
31482;SDS011;18103;52.246;8.052;2023-06-14T09:07:51;1.77;;;1.43;;
31482;SDS011;18103;52.246;8.052;2023-06-14T09:10:17;2.07;;;1.40;;
31482;SDS011;18103;52.246;8.052;2023-06-14T09:12:43;2.00;;;1.20;;
31482;SDS011;18103;52.246;8.052;2023-06-14T09:15:09;1.30;;;0.93;;
31482;SDS011;18103;52.246;8.052;2023-06-14T09:17:35;2.70;;;1.37;;
31482;SDS011;18103;52.246;8.052;2023-06-14T09:20:02;2.83;;;1.50;;
31482;SDS011;18103;52.246;8.052;2023-06-14T09:22:34;2.93;;;1.23;;
31482;SDS011;18103;52.246;8.052;2023-06-14T09:25:03;3.27;;;1.10;;
31482;SDS011;18103;52.246;8.052;2023-06-14T09:27:32;1.50;;;1.10;;
31482;SDS011;18103;52.246;8.052;2023-06-14T09:30:01;1.33;;;0.97;;
31482;SDS011;18103;52.246;8.052;2023-06-14T09:32:30;1.10;;;1.00;;
31482;SDS011;18103;52.246;8.052;2023-06-14T09:34:58;1.43;;;1.20;;
31482;SDS011;18103;52.246;8.052;2023-06-14T09:37:32;8.43;;;2.67;;
31482;SDS011;18103;52.246;8.052;2023-06-14T09:39:58;2.40;;;0.90;;
31482;SDS011;18103;52.246;8.052;2023-06-14T09:42:24;1.83;;;1.10;;
31482;SDS011;18103;52.246;8.052;2023-06-14T09:44:53;3.50;;;1.13;;
31482;SDS011;18103;52.246;8.052;2023-06-14T09:47:25;3.50;;;1.23;;
31482;SDS011;18103;52.246;8.052;2023-06-14T09:49:53;2.30;;;1.17;;
31482;SDS011;18103;52.246;8.052;2023-06-14T09:52:20;2.37;;;1.43;;
31482;SDS011;18103;52.246;8.052;2023-06-14T09:54:47;3.43;;;1.60;;
31482;SDS011;18103;52.246;8.052;2023-06-14T09:57:15;2.50;;;1.03;;
31482;SDS011;18103;52.246;8.052;2023-06-14T09:59:42;3.13;;;1.33;;
31482;SDS011;18103;52.246;8.052;2023-06-14T10:02:36;4.27;;;1.17;;
31482;SDS011;18103;52.246;8.052;2023-06-14T10:05:09;1.97;;;1.20;;
31482;SDS011;18103;52.246;8.052;2023-06-14T10:07:40;4.47;;;1.13;;
31482;SDS011;18103;52.246;8.052;2023-06-14T10:10:15;1.37;;;1.00;;
31482;SDS011;18103;52.246;8.052;2023-06-14T10:12:40;1.90;;;1.00;;
31482;SDS011;18103;52.246;8.052;2023-06-14T10:15:13;1.57;;;1.03;;
31482;SDS011;18103;52.246;8.052;2023-06-14T10:18:09;1.47;;;1.20;;
31482;SDS011;18103;52.246;8.052;2023-06-14T10:20:52;2.33;;;1.20;;
31482;SDS011;18103;52.246;8.052;2023-06-14T10:23:23;5.07;;;1.30;;
31482;SDS011;18103;52.246;8.052;2023-06-14T10:25:55;1.13;;;1.03;;
31482;SDS011;18103;52.246;8.052;2023-06-14T10:28:22;3.23;;;1.10;;
31482;SDS011;18103;52.246;8.052;2023-06-14T10:31:02;4.10;;;1.00;;
31482;SDS011;18103;52.246;8.052;2023-06-14T10:33:56;1.60;;;1.00;;
31482;SDS011;18103;52.246;8.052;2023-06-14T10:41:23;3.87;;;0.80;;
31482;SDS011;18103;52.246;8.052;2023-06-14T10:43:54;2.90;;;1.17;;
31482;SDS011;18103;52.246;8.052;2023-06-14T10:46:38;1.27;;;0.90;;
31482;SDS011;18103;52.246;8.052;2023-06-14T10:49:19;3.00;;;1.30;;
31482;SDS011;18103;52.246;8.052;2023-06-14T10:52:03;4.40;;;1.40;;
31482;SDS011;18103;52.246;8.052;2023-06-14T10:54:36;1.63;;;1.10;;
31482;SDS011;18103;52.246;8.052;2023-06-14T10:57:02;3.63;;;1.50;;
31482;SDS011;18103;52.246;8.052;2023-06-14T10:59:34;5.47;;;1.00;;
31482;SDS011;18103;52.246;8.052;2023-06-14T11:04:46;1.80;;;1.10;;
31482;SDS011;18103;52.246;8.052;2023-06-14T11:07:31;3.40;;;1.10;;
31482;SDS011;18103;52.246;8.052;2023-06-14T11:12:38;1.50;;;1.10;;
31482;SDS011;18103;52.246;8.052;2023-06-14T11:15:05;1.43;;;0.97;;
31482;SDS011;18103;52.246;8.052;2023-06-14T11:17:31;2.67;;;1.20;;
31482;SDS011;18103;52.246;8.052;2023-06-14T11:20:09;1.20;;;1.10;;
31482;SDS011;18103;52.246;8.052;2023-06-14T11:22:41;5.07;;;1.30;;
31482;SDS011;18103;52.246;8.052;2023-06-14T11:25:10;6.17;;;1.17;;
31482;SDS011;18103;52.246;8.052;2023-06-14T11:27:41;6.80;;;1.17;;
31482;SDS011;18103;52.246;8.052;2023-06-14T11:30:08;2.60;;;1.23;;
31482;SDS011;18103;52.246;8.052;2023-06-14T11:32:39;1.60;;;1.20;;
31482;SDS011;18103;52.246;8.052;2023-06-14T11:35:06;1.10;;;0.97;;
31482;SDS011;18103;52.246;8.052;2023-06-14T11:37:37;3.47;;;1.03;;
31482;SDS011;18103;52.246;8.052;2023-06-14T11:40:03;2.30;;;1.50;;
31482;SDS011;18103;52.246;8.052;2023-06-14T11:42:36;2.13;;;1.10;;
31482;SDS011;18103;52.246;8.052;2023-06-14T11:45:03;1.07;;;0.97;;
31482;SDS011;18103;52.246;8.052;2023-06-14T11:47:33;2.57;;;1.00;;
31482;SDS011;18103;52.246;8.052;2023-06-14T11:50:02;1.10;;;1.00;;
31482;SDS011;18103;52.246;8.052;2023-06-14T11:52:28;1.47;;;1.00;;
31482;SDS011;18103;52.246;8.052;2023-06-14T11:54:56;1.37;;;0.90;;
31482;SDS011;18103;52.246;8.052;2023-06-14T11:57:22;1.70;;;0.80;;
31482;SDS011;18103;52.246;8.052;2023-06-14T11:59:48;1.30;;;1.10;;
31482;SDS011;18103;52.246;8.052;2023-06-14T12:02:19;4.77;;;1.10;;
31482;SDS011;18103;52.246;8.052;2023-06-14T12:04:46;1.80;;;0.93;;
31482;SDS011;18103;52.246;8.052;2023-06-14T12:07:16;1.00;;;0.80;;
31482;SDS011;18103;52.246;8.052;2023-06-14T12:10:04;2.60;;;1.30;;
31482;SDS011;18103;52.246;8.052;2023-06-14T12:12:34;2.13;;;0.80;;
31482;SDS011;18103;52.246;8.052;2023-06-14T12:15:06;2.97;;;1.00;;
31482;SDS011;18103;52.246;8.052;2023-06-14T12:17:33;2.53;;;0.80;;
31482;SDS011;18103;52.246;8.052;2023-06-14T12:20:04;1.93;;;1.27;;
31482;SDS011;18103;52.246;8.052;2023-06-14T12:22:51;3.70;;;0.90;;
31482;SDS011;18103;52.246;8.052;2023-06-14T12:25:26;1.70;;;0.83;;
31482;SDS011;18103;52.246;8.052;2023-06-14T12:27:52;2.27;;;1.17;;
31482;SDS011;18103;52.246;8.052;2023-06-14T12:30:23;1.43;;;0.90;;
31482;SDS011;18103;52.246;8.052;2023-06-14T12:32:50;1.53;;;1.00;;
31482;SDS011;18103;52.246;8.052;2023-06-14T12:35:16;1.10;;;0.83;;
31482;SDS011;18103;52.246;8.052;2023-06-14T12:37:45;1.00;;;0.90;;
31482;SDS011;18103;52.246;8.052;2023-06-14T12:40:13;2.50;;;1.00;;
31482;SDS011;18103;52.246;8.052;2023-06-14T12:42:38;1.77;;;0.87;;
31482;SDS011;18103;52.246;8.052;2023-06-14T12:45:04;1.17;;;0.93;;
31482;SDS011;18103;52.246;8.052;2023-06-14T12:47:30;1.53;;;0.73;;
31482;SDS011;18103;52.246;8.052;2023-06-14T12:49:55;1.60;;;1.00;;
31482;SDS011;18103;52.246;8.052;2023-06-14T12:52:25;3.67;;;0.90;;
31482;SDS011;18103;52.246;8.052;2023-06-14T12:54:55;3.90;;;1.10;;
31482;SDS011;18103;52.246;8.052;2023-06-14T12:57:20;1.33;;;0.77;;
31482;SDS011;18103;52.246;8.052;2023-06-14T12:59:48;2.27;;;1.00;;
31482;SDS011;18103;52.246;8.052;2023-06-14T13:02:14;5.00;;;1.23;;
31482;SDS011;18103;52.246;8.052;2023-06-14T13:04:40;3.20;;;0.80;;
31482;SDS011;18103;52.246;8.052;2023-06-14T13:07:06;1.23;;;0.90;;
31482;SDS011;18103;52.246;8.052;2023-06-14T13:09:35;1.70;;;0.90;;
31482;SDS011;18103;52.246;8.052;2023-06-14T13:12:03;0.93;;;0.73;;
31482;SDS011;18103;52.246;8.052;2023-06-14T13:14:29;1.67;;;1.00;;
31482;SDS011;18103;52.246;8.052;2023-06-14T13:16:57;4.10;;;0.93;;
31482;SDS011;18103;52.246;8.052;2023-06-14T13:19:22;1.40;;;1.00;;
31482;SDS011;18103;52.246;8.052;2023-06-14T13:21:48;1.20;;;1.00;;
31482;SDS011;18103;52.246;8.052;2023-06-14T13:24:13;1.50;;;1.00;;
31482;SDS011;18103;52.246;8.052;2023-06-14T13:26:42;4.57;;;1.10;;
31482;SDS011;18103;52.246;8.052;2023-06-14T13:29:07;1.13;;;0.90;;
31482;SDS011;18103;52.246;8.052;2023-06-14T13:31:33;1.30;;;0.90;;
31482;SDS011;18103;52.246;8.052;2023-06-14T13:34:01;2.50;;;1.40;;
31482;SDS011;18103;52.246;8.052;2023-06-14T13:36:27;1.53;;;1.30;;
31482;SDS011;18103;52.246;8.052;2023-06-14T13:38:55;3.17;;;1.60;;
31482;SDS011;18103;52.246;8.052;2023-06-14T13:41:20;2.93;;;1.03;;
31482;SDS011;18103;52.246;8.052;2023-06-14T13:43:48;1.53;;;1.33;;
31482;SDS011;18103;52.246;8.052;2023-06-14T13:46:18;3.77;;;1.20;;
31482;SDS011;18103;52.246;8.052;2023-06-14T13:48:46;1.67;;;1.10;;
31482;SDS011;18103;52.246;8.052;2023-06-14T13:51:13;2.07;;;0.87;;
31482;SDS011;18103;52.246;8.052;2023-06-14T13:53:39;2.23;;;1.17;;
31482;SDS011;18103;52.246;8.052;2023-06-14T13:56:04;2.83;;;1.20;;
31482;SDS011;18103;52.246;8.052;2023-06-14T13:58:30;3.33;;;1.53;;
31482;SDS011;18103;52.246;8.052;2023-06-14T14:00:55;1.93;;;1.20;;
31482;SDS011;18103;52.246;8.052;2023-06-14T14:03:20;4.07;;;1.17;;
31482;SDS011;18103;52.246;8.052;2023-06-14T14:05:46;2.97;;;1.27;;
31482;SDS011;18103;52.246;8.052;2023-06-14T14:08:11;1.93;;;1.17;;
31482;SDS011;18103;52.246;8.052;2023-06-14T14:10:39;4.30;;;0.90;;
31482;SDS011;18103;52.246;8.052;2023-06-14T14:13:04;4.93;;;1.23;;
31482;SDS011;18103;52.246;8.052;2023-06-14T14:15:30;3.13;;;1.37;;
31482;SDS011;18103;52.246;8.052;2023-06-14T14:17:55;3.23;;;1.17;;
31482;SDS011;18103;52.246;8.052;2023-06-14T14:20:23;3.00;;;1.40;;
31482;SDS011;18103;52.246;8.052;2023-06-14T14:22:48;2.77;;;1.13;;
31482;SDS011;18103;52.246;8.052;2023-06-14T14:25:16;2.77;;;1.33;;
31482;SDS011;18103;52.246;8.052;2023-06-14T14:27:43;6.00;;;1.60;;
31482;SDS011;18103;52.246;8.052;2023-06-14T14:30:09;2.60;;;1.17;;
31482;SDS011;18103;52.246;8.052;2023-06-14T14:32:37;2.00;;;1.30;;
31482;SDS011;18103;52.246;8.052;2023-06-14T14:35:02;1.50;;;1.30;;
31482;SDS011;18103;52.246;8.052;2023-06-14T14:37:30;7.10;;;1.90;;
31482;SDS011;18103;52.246;8.052;2023-06-14T14:39:55;1.87;;;1.40;;
31482;SDS011;18103;52.246;8.052;2023-06-14T14:42:21;4.10;;;1.23;;
31482;SDS011;18103;52.246;8.052;2023-06-14T14:44:46;2.40;;;1.50;;
31482;SDS011;18103;52.246;8.052;2023-06-14T14:47:11;1.60;;;1.40;;
31482;SDS011;18103;52.246;8.052;2023-06-14T14:49:37;1.73;;;1.40;;
31482;SDS011;18103;52.246;8.052;2023-06-14T14:52:02;3.27;;;1.30;;
31482;SDS011;18103;52.246;8.052;2023-06-14T14:54:28;2.57;;;1.70;;
31482;SDS011;18103;52.246;8.052;2023-06-14T14:56:54;2.77;;;1.43;;
31482;SDS011;18103;52.246;8.052;2023-06-14T14:59:20;4.10;;;1.87;;
31482;SDS011;18103;52.246;8.052;2023-06-14T15:01:46;1.63;;;1.27;;
31482;SDS011;18103;52.246;8.052;2023-06-14T15:04:12;4.00;;;1.37;;
31482;SDS011;18103;52.246;8.052;2023-06-14T15:06:38;5.80;;;1.67;;